createdAt,value
2023-03-13T00:02:09.832Z,5.32
2023-03-13T00:04:39.298Z,5.95
2023-03-13T00:07:07.368Z,5.68
2023-03-13T00:09:35.258Z,5.70
2023-03-13T00:12:03.249Z,6.82
2023-03-13T00:14:31.154Z,5.75
2023-03-13T00:16:59.396Z,5.53
2023-03-13T00:19:27.458Z,5.78
2023-03-13T00:21:57.132Z,4.63
2023-03-13T00:24:24.982Z,5.20
2023-03-13T00:26:53.407Z,5.47
2023-03-13T00:29:21.276Z,5.50
2023-03-13T00:31:49.508Z,7.22
2023-03-13T00:34:17.931Z,6.28
2023-03-13T00:36:45.933Z,5.93
2023-03-13T00:39:15.567Z,6.82
2023-03-13T00:41:43.873Z,6.47
2023-03-13T00:44:11.998Z,6.32
2023-03-13T00:46:39.947Z,5.63
2023-03-13T00:49:08.912Z,6.15
2023-03-13T00:51:36.876Z,7.00
2023-03-13T00:54:05.464Z,6.15
2023-03-13T00:56:35.557Z,6.28
2023-03-13T00:59:03.588Z,5.90
2023-03-13T01:01:33.545Z,7.40
2023-03-13T01:04:03.170Z,8.48
2023-03-13T01:06:33.350Z,6.38
2023-03-13T01:09:02.112Z,6.50
2023-03-13T01:11:31.876Z,6.50
2023-03-13T01:14:04.927Z,6.15
2023-03-13T01:16:34.756Z,7.13
2023-03-13T01:19:05.531Z,6.50
2023-03-13T01:21:33.531Z,6.63
2023-03-13T01:24:02.442Z,6.32
2023-03-13T01:26:30.632Z,7.10
2023-03-13T01:28:58.888Z,6.53
2023-03-13T01:31:30.878Z,6.53
2023-03-13T01:34:02.212Z,6.43
2023-03-13T01:36:31.195Z,6.90
2023-03-13T01:39:01.493Z,7.53
2023-03-13T01:41:31.745Z,7.80
2023-03-13T01:44:00.482Z,6.63
2023-03-13T01:46:35.427Z,6.97
2023-03-13T01:49:15.943Z,7.70
2023-03-13T01:52:08.626Z,7.15
2023-03-13T01:54:45.594Z,6.20
2023-03-13T01:57:22.246Z,6.47
2023-03-13T01:59:54.884Z,6.38
2023-03-13T02:02:25.713Z,5.57
2023-03-13T02:04:58.087Z,6.22
2023-03-13T02:07:31.807Z,5.43
2023-03-13T02:10:00.780Z,6.75
2023-03-13T02:12:32.888Z,6.32
2023-03-13T02:15:06.044Z,6.80
2023-03-13T02:17:37.084Z,6.25
2023-03-13T02:20:05.675Z,6.22
2023-03-13T02:22:41.597Z,5.35
2023-03-13T02:25:18.894Z,6.63
2023-03-13T02:27:49.506Z,6.10
2023-03-13T02:30:17.575Z,6.10
2023-03-13T02:32:46.862Z,6.60
2023-03-13T02:35:18.008Z,6.25
2023-03-13T02:37:49.519Z,5.97
2023-03-13T02:40:25.859Z,5.60
2023-03-13T02:45:24.869Z,6.45
2023-03-13T02:47:52.941Z,6.00
2023-03-13T02:50:22.212Z,5.28
2023-03-13T02:52:57.012Z,5.65
2023-03-13T02:57:56.572Z,4.97
2023-03-13T03:00:26.830Z,4.55
2023-03-13T03:02:56.455Z,4.05
2023-03-13T03:05:25.492Z,4.38
2023-03-13T03:07:53.580Z,5.20
2023-03-13T03:10:21.547Z,4.70
2023-03-13T03:12:50.167Z,5.22
2023-03-13T03:15:20.988Z,3.90
2023-03-13T03:17:49.788Z,3.85
2023-03-13T03:20:17.844Z,4.10
2023-03-13T03:22:45.739Z,3.72
2023-03-13T03:25:14.322Z,3.95
2023-03-13T03:27:42.598Z,3.83
2023-03-13T03:30:12.295Z,3.97
2023-03-13T03:32:42.286Z,4.03
2023-03-13T03:35:10.792Z,3.50
2023-03-13T03:37:38.859Z,3.78
2023-03-13T03:40:08.003Z,3.85
2023-03-13T03:42:36.465Z,3.40
2023-03-13T03:45:06.473Z,3.60
2023-03-13T03:47:34.703Z,3.78
2023-03-13T03:50:04.789Z,3.80
2023-03-13T03:52:40.088Z,3.47
2023-03-13T03:55:08.616Z,3.08
2023-03-13T03:57:36.788Z,3.47
2023-03-13T04:00:08.054Z,3.15
2023-03-13T04:02:41.053Z,3.00
2023-03-13T04:05:12.025Z,3.72
2023-03-13T04:07:41.579Z,2.90
2023-03-13T04:10:11.111Z,3.45
2023-03-13T04:12:44.239Z,2.70
2023-03-13T04:15:12.970Z,3.13
2023-03-13T04:17:41.639Z,3.55
2023-03-13T04:20:14.654Z,2.53
2023-03-13T04:22:43.300Z,3.03
2023-03-13T04:25:12.417Z,2.78
2023-03-13T04:27:40.426Z,3.10
2023-03-13T04:30:11.243Z,3.50
2023-03-13T04:33:02.617Z,4.97
2023-03-13T04:35:35.268Z,5.25
2023-03-13T04:38:30.003Z,6.03
2023-03-13T04:40:57.907Z,5.93
2023-03-13T04:43:51.727Z,6.32
2023-03-13T04:46:45.777Z,7.20
2023-03-13T04:49:34.992Z,7.32
2023-03-13T04:52:30.595Z,7.35
2023-03-13T04:55:18.865Z,8.50
2023-03-13T04:57:55.442Z,8.30
2023-03-13T05:00:37.883Z,7.78
2023-03-13T05:03:24.668Z,7.85
2023-03-13T05:06:08.872Z,7.68
2023-03-13T05:08:58.916Z,8.00
2023-03-13T05:11:45.522Z,7.82
2023-03-13T05:17:32.952Z,6.43
2023-03-13T05:20:21.814Z,7.32
2023-03-13T05:23:04.119Z,7.93
2023-03-13T05:25:49.896Z,7.45
2023-03-13T05:28:26.975Z,6.82
2023-03-13T05:31:30.411Z,6.40
2023-03-13T05:34:10.160Z,6.28
2023-03-13T05:36:44.223Z,5.00
2023-03-13T05:39:30.815Z,5.10
2023-03-13T05:42:14.305Z,4.88
2023-03-13T05:44:51.565Z,4.35
2023-03-13T05:47:49.464Z,4.28
2023-03-13T05:50:35.968Z,4.82
2023-03-13T05:53:42.369Z,4.53
2023-03-13T05:56:26.989Z,5.45
2023-03-13T05:59:07.602Z,4.28
2023-03-13T06:02:11.101Z,4.97
2023-03-13T06:04:44.091Z,4.72
2023-03-13T06:07:12.524Z,5.22
2023-03-13T06:09:41.721Z,5.13
2023-03-13T06:12:11.966Z,4.85
2023-03-13T06:14:41.794Z,4.22
2023-03-13T06:17:15.488Z,4.28
2023-03-13T06:19:43.520Z,4.82
2023-03-13T06:22:11.495Z,4.30
2023-03-13T06:24:39.634Z,5.45
2023-03-13T06:27:08.532Z,6.00
2023-03-13T06:29:36.746Z,5.15
2023-03-13T06:32:06.997Z,4.50
2023-03-13T06:34:35.128Z,4.80
2023-03-13T06:37:03.225Z,5.25
2023-03-13T06:39:31.535Z,5.22
2023-03-13T06:41:59.873Z,4.53
2023-03-13T06:44:28.104Z,4.75
2023-03-13T06:46:56.042Z,4.90
2023-03-13T06:49:25.634Z,5.22
2023-03-13T06:51:53.674Z,4.97
2023-03-13T06:54:21.529Z,4.65
2023-03-13T06:56:49.473Z,4.90
2023-03-13T06:59:17.457Z,4.72
2023-03-13T07:01:46.003Z,5.40
2023-03-13T07:04:14.874Z,5.05
2023-03-13T07:06:44.380Z,4.45
2023-03-13T07:09:12.509Z,4.60
2023-03-13T07:11:40.948Z,3.92
2023-03-13T07:14:16.949Z,5.22
2023-03-13T07:16:45.772Z,4.70
2023-03-13T07:19:14.427Z,5.10
2023-03-13T07:21:44.316Z,5.13
2023-03-13T07:24:12.702Z,4.20
2023-03-13T07:26:46.456Z,3.88
2023-03-13T07:29:22.507Z,4.82
2023-03-13T07:31:50.516Z,3.70
2023-03-13T07:34:18.647Z,3.97
2023-03-13T07:36:48.621Z,4.82
2023-03-13T07:39:16.760Z,5.07
2023-03-13T07:41:44.818Z,5.57
2023-03-13T07:44:17.198Z,4.75
2023-03-13T07:46:46.052Z,5.40
2023-03-13T07:49:14.291Z,4.45
2023-03-13T07:51:44.273Z,4.20
2023-03-13T07:54:14.336Z,3.97
2023-03-13T07:56:42.335Z,5.03
2023-03-13T07:59:10.621Z,3.95
2023-03-13T08:01:38.668Z,3.55
2023-03-13T08:04:07.523Z,3.70
2023-03-13T08:06:36.921Z,3.42
2023-03-13T08:09:06.679Z,3.47
2023-03-13T08:11:36.058Z,4.00
2023-03-13T08:14:04.273Z,3.50
2023-03-13T08:16:34.930Z,3.28
2023-03-13T08:19:05.865Z,3.28
2023-03-13T08:21:35.958Z,2.72
2023-03-13T08:24:07.276Z,3.20
2023-03-13T08:26:38.990Z,3.60
2023-03-13T08:29:09.158Z,2.08
2023-03-13T08:31:39.353Z,2.45
2023-03-13T08:34:07.305Z,2.90
2023-03-13T08:36:36.906Z,2.40
2023-03-13T08:39:07.050Z,2.60
2023-03-13T08:41:37.785Z,2.70
2023-03-13T08:44:06.520Z,2.67
2023-03-13T08:46:36.218Z,1.90
2023-03-13T08:49:05.469Z,1.95
2023-03-13T08:51:33.528Z,2.55
2023-03-13T08:54:02.765Z,2.03
2023-03-13T08:56:31.671Z,2.13
2023-03-13T08:59:02.699Z,2.40
2023-03-13T09:01:33.311Z,2.08
2023-03-13T09:04:03.868Z,1.70
2023-03-13T09:06:32.565Z,1.65
2023-03-13T09:09:00.526Z,2.58
2023-03-13T09:11:28.990Z,1.67
2023-03-13T09:13:59.368Z,1.85
2023-03-13T09:16:30.675Z,1.60
2023-03-13T09:19:00.122Z,1.85
2023-03-13T09:21:30.098Z,2.00
2023-03-13T09:23:58.972Z,2.28
2023-03-13T09:26:28.332Z,2.05
2023-03-13T09:28:57.202Z,3.22
2023-03-13T09:31:26.718Z,2.50
2023-03-13T09:33:56.268Z,3.28
2023-03-13T09:36:24.936Z,3.83
2023-03-13T09:38:54.750Z,2.33
2023-03-13T09:41:26.757Z,3.13
2023-03-13T09:44:03.182Z,6.40
2023-03-13T09:46:38.898Z,3.03
2023-03-13T09:49:17.850Z,3.33
2023-03-13T09:51:51.223Z,2.95
2023-03-13T09:54:25.905Z,2.97
2023-03-13T09:56:57.568Z,3.53
2023-03-13T09:59:30.993Z,3.08
2023-03-13T10:02:02.110Z,3.05
2023-03-13T10:04:40.473Z,3.08
2023-03-13T10:07:12.246Z,2.50
2023-03-13T10:09:41.530Z,2.78
2023-03-13T10:12:16.836Z,3.15
2023-03-13T10:14:49.668Z,3.13
2023-03-13T10:17:29.336Z,3.10
2023-03-13T10:20:02.329Z,2.97
2023-03-13T10:22:32.525Z,3.53
2023-03-13T10:25:04.317Z,3.92
2023-03-13T10:27:32.448Z,3.55
2023-03-13T10:30:00.456Z,3.83
2023-03-13T10:32:28.671Z,4.57
2023-03-13T10:35:00.492Z,3.47
2023-03-13T10:37:30.743Z,3.88
2023-03-13T10:40:15.063Z,3.72
2023-03-13T10:42:46.193Z,3.65
2023-03-13T10:45:18.222Z,4.63
2023-03-13T10:47:46.216Z,3.88
2023-03-13T10:50:24.426Z,4.22
2023-03-13T10:52:52.979Z,3.70
2023-03-13T10:55:23.405Z,3.85
2023-03-13T10:57:59.743Z,3.70
2023-03-13T11:00:36.533Z,3.83
2023-03-13T11:03:08.890Z,3.72
2023-03-13T11:05:43.692Z,4.75
2023-03-13T11:08:22.713Z,2.97
2023-03-13T11:11:02.291Z,3.92
2023-03-13T11:13:37.643Z,4.32
2023-03-13T11:16:22.107Z,3.22
2023-03-13T11:19:09.282Z,3.63
2023-03-13T11:21:49.238Z,3.38
2023-03-13T11:24:25.540Z,3.25
2023-03-13T11:27:05.076Z,3.63
2023-03-13T11:29:43.188Z,3.42
2023-03-13T11:32:23.849Z,3.08
2023-03-13T11:34:55.717Z,3.45
2023-03-13T11:37:27.277Z,3.05
2023-03-13T11:40:11.089Z,3.22
2023-03-13T11:47:58.944Z,2.70
2023-03-13T11:50:36.898Z,2.67
2023-03-13T11:53:21.449Z,2.75
2023-03-13T11:56:03.368Z,2.63
2023-03-13T11:58:52.761Z,2.55
2023-03-13T12:01:24.216Z,3.10
2023-03-13T12:03:59.496Z,2.80
2023-03-13T12:06:32.068Z,3.03
2023-03-13T12:09:08.343Z,2.78
2023-03-13T12:11:43.673Z,2.42
2023-03-13T12:14:16.286Z,3.75
2023-03-13T12:16:49.382Z,2.67
2023-03-13T12:19:24.622Z,3.63
2023-03-13T12:21:55.817Z,2.85
2023-03-13T12:24:30.865Z,3.03
2023-03-13T12:27:03.368Z,3.25
2023-03-13T12:29:43.082Z,3.40
2023-03-13T12:32:16.111Z,3.90
2023-03-13T12:34:56.553Z,3.60
2023-03-13T12:37:32.313Z,3.72
2023-03-13T12:40:08.624Z,3.33
2023-03-13T12:42:48.168Z,4.65
2023-03-13T12:45:19.272Z,3.13
2023-03-13T12:48:10.329Z,3.85
2023-03-13T12:50:55.568Z,3.65
2023-03-13T12:53:58.338Z,3.50
2023-03-13T12:56:38.779Z,3.58
2023-03-13T12:59:10.421Z,4.88
2023-03-13T13:01:42.578Z,4.35
2023-03-13T13:04:15.411Z,4.10
2023-03-13T13:06:56.591Z,4.05
2023-03-13T13:09:26.169Z,3.80
2023-03-13T13:11:57.655Z,4.25
2023-03-13T13:14:59.936Z,4.07
2023-03-13T13:17:48.379Z,4.75
2023-03-13T13:20:32.174Z,4.18
2023-03-13T13:25:42.933Z,3.85
2023-03-13T13:28:28.749Z,4.57
2023-03-13T13:30:57.917Z,4.82
2023-03-13T13:33:40.967Z,4.45
2023-03-13T13:36:31.304Z,4.57
2023-03-13T13:39:00.100Z,4.22
2023-03-13T13:41:38.463Z,4.40
2023-03-13T13:44:29.483Z,5.32
2023-03-13T13:47:01.911Z,5.13
2023-03-13T13:49:36.540Z,4.15
2023-03-13T13:52:37.041Z,5.20
2023-03-13T13:55:34.274Z,4.53
2023-03-13T13:58:05.296Z,4.43
2023-03-13T14:00:42.016Z,5.05
2023-03-13T14:03:20.342Z,4.13
2023-03-13T14:05:49.929Z,4.63
2023-03-13T14:08:24.094Z,5.47
2023-03-13T14:11:05.253Z,4.50
2023-03-13T14:13:33.326Z,4.10
2023-03-13T14:16:24.104Z,3.97
2023-03-13T14:18:53.416Z,4.45
2023-03-13T14:21:24.515Z,4.55
2023-03-13T14:23:52.384Z,4.97
2023-03-13T14:26:22.026Z,4.50
2023-03-13T14:28:51.802Z,4.47
2023-03-13T14:31:27.769Z,4.57
2023-03-13T14:33:57.765Z,5.00
2023-03-13T14:36:25.995Z,4.28
2023-03-13T14:38:56.790Z,5.25
2023-03-13T14:41:38.320Z,4.28
2023-03-13T14:44:08.311Z,4.97
2023-03-13T14:46:41.486Z,4.38
2023-03-13T14:49:17.426Z,4.20
2023-03-13T14:51:45.726Z,4.93
2023-03-13T14:54:28.880Z,4.50
2023-03-13T14:57:24.045Z,4.93
2023-03-13T14:59:53.706Z,5.70
2023-03-13T15:02:25.478Z,5.80
2023-03-13T15:04:57.507Z,4.60
2023-03-13T15:07:27.630Z,5.10
2023-03-13T15:09:55.807Z,4.95
2023-03-13T15:12:24.612Z,4.65
2023-03-13T15:14:54.023Z,4.43
2023-03-13T15:17:25.463Z,4.68
2023-03-13T15:19:55.841Z,5.35
2023-03-13T15:22:29.275Z,5.82
2023-03-13T15:25:06.069Z,5.72
2023-03-13T15:27:35.735Z,4.65
2023-03-13T15:30:03.967Z,5.55
2023-03-13T15:32:35.566Z,4.97
2023-03-13T15:35:12.909Z,5.90
2023-03-13T15:37:40.881Z,5.85
2023-03-13T15:40:15.551Z,4.50
2023-03-13T15:42:43.729Z,5.75
2023-03-13T15:45:12.597Z,5.60
2023-03-13T15:47:41.959Z,4.75
2023-03-13T15:50:13.849Z,5.50
2023-03-13T15:52:42.333Z,6.70
2023-03-13T15:55:12.881Z,5.60
2023-03-13T15:57:43.993Z,5.60
2023-03-13T16:00:18.986Z,4.55
2023-03-13T16:02:48.576Z,4.13
2023-03-13T16:05:17.280Z,6.95
2023-03-13T16:07:45.384Z,5.57
2023-03-13T16:10:19.051Z,5.25
2023-03-13T16:15:15.009Z,6.10
2023-03-13T16:17:43.009Z,5.15
2023-03-13T16:20:19.060Z,5.07
2023-03-13T16:22:47.163Z,5.25
2023-03-13T16:25:16.007Z,4.95
2023-03-13T16:27:44.467Z,5.45
2023-03-13T16:30:18.726Z,5.30
2023-03-13T16:32:47.271Z,5.38
2023-03-13T16:35:17.513Z,4.65
2023-03-13T16:37:45.885Z,6.13
2023-03-13T16:40:18.775Z,5.30
2023-03-13T16:42:46.718Z,4.20
2023-03-13T16:45:15.556Z,6.18
2023-03-13T16:47:44.967Z,6.00
2023-03-13T16:50:24.596Z,6.00
2023-03-13T16:52:53.710Z,5.32
2023-03-13T16:55:24.766Z,5.25
2023-03-13T16:57:54.860Z,5.25
2023-03-13T17:00:24.199Z,6.07
2023-03-13T17:02:52.509Z,5.30
2023-03-13T17:05:22.434Z,5.43
2023-03-13T17:07:52.280Z,5.75
2023-03-13T17:10:23.000Z,5.45
2023-03-13T17:12:51.314Z,5.45
2023-03-13T17:15:21.815Z,6.45
2023-03-13T17:17:52.445Z,5.32
2023-03-13T17:20:25.230Z,5.43
2023-03-13T17:22:53.794Z,6.53
2023-03-13T17:25:21.968Z,4.55
2023-03-13T17:27:50.041Z,4.97
2023-03-13T17:30:24.082Z,5.25
2023-03-13T17:32:52.859Z,6.07
2023-03-13T17:35:23.247Z,4.13
2023-03-13T17:37:51.614Z,5.32
2023-03-13T17:40:21.943Z,5.28
2023-03-13T17:42:50.287Z,5.20
2023-03-13T17:45:18.940Z,5.55
2023-03-13T17:47:49.323Z,5.13
2023-03-13T17:50:21.198Z,5.32
2023-03-13T17:52:50.597Z,4.68
2023-03-13T17:55:19.168Z,5.18
2023-03-13T17:57:48.403Z,4.70
2023-03-13T18:00:22.318Z,4.90
2023-03-13T18:02:50.507Z,6.53
2023-03-13T18:05:19.529Z,5.25
2023-03-13T18:07:48.316Z,4.22
2023-03-13T18:10:22.837Z,7.05
2023-03-13T18:12:51.577Z,5.25
2023-03-13T18:15:20.381Z,5.03
2023-03-13T18:17:48.642Z,5.40
2023-03-13T18:20:18.616Z,4.90
2023-03-13T18:22:47.160Z,5.00
2023-03-13T18:25:16.238Z,5.82
2023-03-13T18:27:45.969Z,5.40
2023-03-13T18:30:20.597Z,5.40
2023-03-13T18:32:48.858Z,5.03
2023-03-13T18:35:17.763Z,5.30
2023-03-13T18:37:48.376Z,5.93
2023-03-13T18:40:20.720Z,5.03
2023-03-13T18:42:50.627Z,4.85
2023-03-13T18:45:21.069Z,5.20
2023-03-13T18:47:49.400Z,5.47
2023-03-13T18:50:23.622Z,5.50
2023-03-13T18:52:52.285Z,5.75
2023-03-13T18:55:20.491Z,5.55
2023-03-13T18:57:50.266Z,5.20
2023-03-13T19:00:20.989Z,6.07
2023-03-13T19:02:49.596Z,4.43
2023-03-13T19:05:18.778Z,5.38
2023-03-13T19:07:46.990Z,5.70
2023-03-13T19:10:20.418Z,5.82
2023-03-13T19:12:49.959Z,5.03
2023-03-13T19:15:19.083Z,5.82
2023-03-13T19:17:47.152Z,5.38
2023-03-13T19:20:17.388Z,6.70
2023-03-13T19:22:45.288Z,5.53
2023-03-13T19:25:17.033Z,5.72
2023-03-13T19:27:45.598Z,5.03
2023-03-13T19:30:19.219Z,5.30
2023-03-13T19:35:18.950Z,5.68
2023-03-13T19:37:47.048Z,6.38
2023-03-13T19:40:19.470Z,6.00
2023-03-13T19:42:47.483Z,6.10
2023-03-13T19:45:17.390Z,5.60
2023-03-13T19:47:46.749Z,5.18
2023-03-13T19:50:19.178Z,5.80
2023-03-13T19:52:47.300Z,6.07
2023-03-13T19:55:15.935Z,6.93
2023-03-13T19:57:44.131Z,6.20
2023-03-13T20:00:20.842Z,7.47
2023-03-13T20:02:52.011Z,5.57
2023-03-13T20:05:20.216Z,6.10
2023-03-13T20:07:48.826Z,6.75
2023-03-13T20:10:17.398Z,6.63
2023-03-13T20:12:45.522Z,6.07
2023-03-13T20:15:13.955Z,6.25
2023-03-13T20:17:42.019Z,5.00
2023-03-13T20:20:13.712Z,5.88
2023-03-13T20:22:41.915Z,8.15
2023-03-13T20:25:10.801Z,5.80
2023-03-13T20:27:39.166Z,7.18
2023-03-13T20:30:09.237Z,5.60
2023-03-13T20:32:39.449Z,5.93
2023-03-13T20:35:15.896Z,5.97
2023-03-13T20:37:43.908Z,6.50
2023-03-13T20:40:13.753Z,6.93
2023-03-13T20:42:41.776Z,6.80
2023-03-13T20:45:10.341Z,8.88
2023-03-13T20:47:38.313Z,6.65
2023-03-13T20:50:07.733Z,5.55
2023-03-13T20:52:37.308Z,5.95
2023-03-13T20:55:06.174Z,5.53
2023-03-13T20:57:34.050Z,6.28
2023-03-13T21:00:02.407Z,5.82
2023-03-13T21:02:30.817Z,5.82
2023-03-13T21:04:58.998Z,6.00
2023-03-13T21:07:27.190Z,5.97
2023-03-13T21:09:56.523Z,5.80
2023-03-13T21:12:24.496Z,6.72
2023-03-13T21:14:53.620Z,6.00
2023-03-13T21:17:21.540Z,6.90
2023-03-13T21:19:49.819Z,6.13
2023-03-13T21:22:17.870Z,5.45
2023-03-13T21:24:48.544Z,7.07
2023-03-13T21:27:18.298Z,5.13
2023-03-13T21:29:47.380Z,6.40
2023-03-13T21:32:16.141Z,6.53
2023-03-13T21:34:44.582Z,5.95
2023-03-13T21:37:13.064Z,5.53
2023-03-13T21:39:42.161Z,6.07
2023-03-13T21:42:12.703Z,5.25
2023-03-13T21:44:42.218Z,6.72
2023-03-13T21:47:10.321Z,6.97
2023-03-13T21:49:38.527Z,5.40
2023-03-13T21:52:06.559Z,5.80
2023-03-13T21:54:34.500Z,5.63
2023-03-13T21:57:02.428Z,5.57
2023-03-13T21:59:31.886Z,6.50
2023-03-13T22:02:01.153Z,7.15
2023-03-13T22:04:29.324Z,5.05
2023-03-13T22:06:57.547Z,5.20
2023-03-13T22:09:25.470Z,4.75
2023-03-13T22:11:53.585Z,5.40
2023-03-13T22:14:22.184Z,5.35
2023-03-13T22:16:50.547Z,6.13
2023-03-13T22:19:20.122Z,5.30
2023-03-13T22:21:48.217Z,4.82
2023-03-13T22:24:16.148Z,5.40
2023-03-13T22:26:44.039Z,5.18
2023-03-13T22:29:12.126Z,6.15
2023-03-13T22:31:40.218Z,5.72
2023-03-13T22:34:08.579Z,4.80
2023-03-13T22:36:38.267Z,6.32
2023-03-13T22:39:07.368Z,5.70
2023-03-13T22:41:36.082Z,5.05
2023-03-13T22:44:04.644Z,5.28
2023-03-13T22:46:34.279Z,5.35
2023-03-13T22:49:02.742Z,5.28
2023-03-13T22:51:31.564Z,4.72
2023-03-13T22:54:01.823Z,5.05
2023-03-13T22:56:30.391Z,5.88
2023-03-13T22:58:58.507Z,5.40
2023-03-13T23:01:27.989Z,5.85
2023-03-13T23:03:57.201Z,4.65
2023-03-13T23:06:26.888Z,5.72
2023-03-13T23:08:55.202Z,5.70
2023-03-13T23:11:24.603Z,6.00
2023-03-13T23:13:52.575Z,5.45
2023-03-13T23:16:20.615Z,6.22
2023-03-13T23:18:48.837Z,6.07
2023-03-13T23:21:17.544Z,6.00
2023-03-13T23:23:45.874Z,6.60
2023-03-13T23:26:15.492Z,6.30
2023-03-13T23:28:44.910Z,5.47
2023-03-13T23:31:14.597Z,5.30
2023-03-13T23:33:42.997Z,5.35
2023-03-13T23:36:13.996Z,5.78
2023-03-13T23:38:42.414Z,5.30
2023-03-13T23:41:12.613Z,5.32
2023-03-13T23:43:43.842Z,5.20
2023-03-13T23:46:18.907Z,5.15
2023-03-13T23:48:47.431Z,6.03
2023-03-13T23:51:15.512Z,5.80
2023-03-13T23:53:44.462Z,5.38
2023-03-13T23:56:13.053Z,5.15
2023-03-13T23:58:41.345Z,5.10
